Relevés horaires Eggishorn (Suisse)


Relevés horaires à Eggishorn - Mercredi 21 Juin 2017
Heure UTC1 Température [°C] Vent [km/h] Hum. [%] Pres.4 [hPa] Visi. [Km] Nébu. [octa] Préc.5 [mm] Cond.
2m. Res. Ros. Dir.2 Vit. Moy. Raf.3
23:00 9.3 6.5 1.5 NNO 20.4 -- 29.6 58 700(0.2/3h) -- -- -- --
22:00 9.6 7 2.7 O 18.5 -- 18.5 62 700(0.5/3h) -- -- -- --
21:00 9.8 9.4 1.4 O 5.6 -- 68.5 56 700(0.8/3h) -- -- -- --
20:00 10.2 8.7 1.6 NNO 11.1 -- 22.2 55 700(1.0/3h) -- -- -- --
19:00 9.0 6.7 2.3 N 14.8 -- 68.5 63 700(0.8/3h) -- -- -- --
18:00 10.8 9.1 4.5 N 13.0 -- 29.6 65 700(0.5/3h) -- -- -- --
17:00 11.8 11.2 5.0 E 7.4 -- 29.6 63 700(-0.1/3h) -- -- -- --
16:00 16.4 16.4 2.2 SO 7.4 -- 18.5 38 700(-0.3/3h) -- -- -- --
15:00 15.4 15.4 1.6 OSO 5.6 -- 22.2 39 700(-0.5/3h) -- -- -- --
14:00 15.7 15.7 1.3 OSO 5.6 -- 20.4 38 700(-0.5/3h) -- -- -- --
13:00 14.8 14.5 2.3 NNO 9.3 9.3 18.5 43 700(-0.3/3h) -- -- -- --
12:00 12.2 12.2 3.2 S 3.7 -- 20.4 54 700(0.2/3h) -- -- -- --
11:00 12.0 11.9 3.0 SSE 5.6 -- 18.5 54 700(0.4/3h) -- -- -- --
10:00 11.0 9.9 5.1 ESE 9.3 -- 20.4 67 700(0.6/3h) -- -- -- --
09:00 10.5 10.5 6.9 ESE 3.7 -- 18.5 78 700(0.4/3h) -- -- -- --
08:00 9.8 9.8 6.8 SSE 3.7 -- 14.8 82 700(0.5/3h) -- -- -- --
07:00 9.4 8 6.7 SE 9.3 -- 18.5 83 700(0.4/3h) -- -- -- --
06:00 8.7 7.6 7.1 E 7.4 -- 14.8 90 700(0.4/3h) -- -- -- --
05:00 7.6 6.3 5.3 ENE 7.4 -- 11.1 85 700(-0.1/3h) -- -- -- --
04:00 8.0 6.4 1.3 NNO 9.3 -- 14.8 63 700(-0.7/3h) -- -- -- --
03:00 8.6 8.6 2.2 NO 1.9 -- 11.1 64 700(-1.1/3h) -- -- -- --
02:00 8.5 7.9 5.9 SO 5.6 -- 11.1 84 700(-1.0/3h) -- -- -- --
01:00 7.7 7.7 6.1 SSO 3.7 -- 11.1 90 700(-0.6/3h) -- -- -- --
00:00 7.6 6.8 6.6 OSO 5.6 -- 24.1 93 700(-0.4/3h) -- -- -- --

1 Coordinated Universal Time. Actuellement il est 09:00 locale et 07:00 UTC.

2 Le vent souffle depuis la direction indiquée vers la direction oposée.

3 Les rafales max. sont disponible 40 min après l'heure du relevé.

4 Pour les stations d'altitude (plus de 600m) le géopotentiel du niveau le plus proche de la pression obligatoire est indiqué.

5 Les stations disposant d'un diffuseur peuvent indiquer "trace". Cela signifie que des précipitations ont touchés le sol mais que la quantité est inférieure à 0.1 mm.

Copyright

Les données affichées sur cette page sont la propriété exclusive de Météo Suisse.

Récapitulatif de la journée
Température [°C] Vent [km/h] Ensoleillement4 [h] Precipitations totale5 [mm] Pression [Hpa]
Min1 Max.2 Moy.3 Max. Min Max.
7.2 17.7 9.3 68.5 8 h 54 min 0 700.0 700.0

1 Température minimale relevée entre 18:00 UTC la veille et 18:00 UTC le jour donné.

2 Température maximale relevée entre 06:00 UTC le jour donné et 06:00 UTC le lendemain.

3 Vent moyen de la journée basé sur les relevés horaires.

4 Ensoleillement en heures relevé entre 06:00 UTC la veille et 06:00 UTC le jour donné.

5 Précipitations totales tombées entre 06:00 UTC la jour donné et 06:00 UTC le lendemain.

Graphiques horaires